Accueil
METAR-TAF:

METAR-TAF

Aéroports :

Jersey,

Aéroport de Jersey

latitude: 49-13N, longitude: 002-12W, altitude: 84 m

Observation

Le bulletin a été fait il y a 2 heures et 13 minutes, à 20:20 UTC
Vent 12 kt de nord-ouest
Température 9°C
Humidité 71%
Pression 1020 hPa
Visibilité 10 km ou plus
Quelques nuages à une hauteur de 2500 ft

METAR: EGJJ 272020Z 31012KT 9999 FEW025 09/04 Q1020 NOSIG

Heure: 23:33 (22:33 UTC)

Prévision

Le bulletin a été fait il y a 5 heures et 31 minutes, à 17:02 UTC
Prévision valable du 27 à 18 UTC au 28 à 03 UTC
Vent 12 kt de nord-ouest
Visibilité 10 km ou plus
Quelques nuages à une hauteur de 3000 ft
Probabilité 30% :
Temporairement
du 27 à 22 UTC au 28 à 03 UTC
Nuages fragmentés à une hauteur de 1500 ft

TAF: EGJJ 271702Z 2718/2803 31012KT 9999 FEW030 PROB30 TEMPO 2722/2803 BKN015

Observations et prévisions météorologiques de plus de 4000 aéroports (messages METAR et TAF).

Les stations disponibles sont représentées par des disques jaunes et rouges sur la carte.

Passer la souris dessus pour voir le nom de la station.

Cliquer dessus pour voir les observations et prévisions météorologiques.

Pour changer de carte: cliquez sur les boutons verts avec une croix noire pour zoomer, sur le bouton vert avec un tiret pour effectuer un zoom arrière, ou sur les flèches vertes pour les cartes adjacentes.


METAR-TAF: